Time;durP1;ratioP1;P1;durP2;ratioP2;P2;SDS_P1;SDS_P2;PMS_P1;PMS_P2;Temp;Humidity;BMP_temperature;BMP_pressure;BME280_temperature;BME280_humidity;BME280_pressure;Samples;Min_cycle;Max_cycle;Signal;HPM_P1;HPM_P2
2022/03/11 00:00:57;;;;;;;11.02;6.88;;;5.70;66.80;;;;;;5035370;28;20033;-78
2022/03/11 00:03:23;;;;;;;11.25;7.93;;;5.70;67.10;;;;;;5051901;28;20095;-77
2022/03/11 00:05:50;;;;;;;11.75;6.57;;;5.80;67.10;;;;;;5036589;28;20020;-77
2022/03/11 00:08:16;;;;;;;9.50;7.07;;;5.80;67.40;;;;;;5034336;28;20018;-77
2022/03/11 00:10:42;;;;;;;10.65;6.80;;;5.90;67.80;;;;;;5035613;28;20081;-78
2022/03/11 00:13:08;;;;;;;9.95;7.50;;;6.00;67.90;;;;;;5035653;28;20505;-76
2022/03/11 00:15:34;;;;;;;13.32;7.68;;;5.90;68.30;;;;;;5039941;28;20029;-76
2022/03/11 00:17:59;;;;;;;9.77;7.70;;;5.90;69.00;;;;;;5031247;28;20596;-77
2022/03/11 00:20:25;;;;;;;9.98;7.45;;;5.90;69.40;;;;;;5032229;28;20108;-75
2022/03/11 00:22:51;;;;;;;11.60;7.80;;;5.90;69.50;;;;;;5024627;28;20041;-77
2022/03/11 00:25:19;;;;;;;11.95;7.13;;;5.90;69.70;;;;;;5030330;28;20033;-77
2022/03/11 00:27:45;;;;;;;13.60;8.18;;;5.90;69.90;;;;;;5047215;28;20022;-77
2022/03/11 00:30:11;;;;;;;10.45;8.43;;;5.80;70.20;;;;;;5043370;28;20095;-76
2022/03/11 00:32:37;;;;;;;10.35;7.90;;;5.80;70.40;;;;;;5024772;28;20041;-76
2022/03/11 00:35:07;;;;;;;13.30;8.68;;;5.60;71.00;;;;;;5032597;28;20036;-76
2022/03/11 00:37:32;;;;;;;14.57;9.57;;;5.60;71.60;;;;;;5047490;28;20029;-76
2022/03/11 00:39:58;;;;;;;12.90;9.02;;;5.60;71.70;;;;;;5035384;28;20043;-81
2022/03/11 00:42:24;;;;;;;12.25;9.23;;;5.60;72.00;;;;;;5046332;28;20449;-76
2022/03/11 00:44:49;;;;;;;12.43;8.60;;;5.70;72.40;;;;;;5028538;28;20513;-79
2022/03/11 00:47:15;;;;;;;12.07;8.80;;;5.80;72.60;;;;;;5030974;28;20032;-77
2022/03/11 00:49:40;;;;;;;12.52;9.55;;;5.80;72.90;;;;;;5023468;28;20057;-76
2022/03/11 00:52:06;;;;;;;13.32;9.73;;;5.80;73.30;;;;;;5027324;28;20055;-78
2022/03/11 00:54:32;;;;;;;16.60;9.95;;;5.80;74.00;;;;;;5024587;28;20053;-76
2022/03/11 00:56:57;;;;;;;14.18;9.73;;;5.80;73.90;;;;;;5032581;28;20048;-78
2022/03/11 00:59:23;;;;;;;11.48;9.88;;;5.80;74.30;;;;;;5047621;28;20041;-78
2022/03/11 01:01:49;;;;;;;14.48;9.73;;;5.80;74.70;;;;;;5034105;28;20018;-79
2022/03/11 01:04:15;;;;;;;14.07;10.75;;;5.70;76.20;;;;;;5032342;28;20028;-79
2022/03/11 01:06:40;;;;;;;12.98;9.70;;;5.60;75.70;;;;;;5046092;28;20032;-79
2022/03/11 01:09:06;;;;;;;13.27;11.85;;;5.60;76.00;;;;;;5020207;28;20029;-79
2022/03/11 01:11:32;;;;;;;12.00;9.68;;;5.40;76.40;;;;;;5034321;28;20029;-79
2022/03/11 01:13:58;;;;;;;14.25;10.60;;;5.30;77.40;;;;;;5033751;28;20398;-79
2022/03/11 01:16:23;;;;;;;16.73;12.10;;;5.20;77.80;;;;;;5032789;28;20073;-79
2022/03/11 01:18:50;;;;;;;15.05;11.18;;;5.10;78.50;;;;;;5031874;28;20104;-79
2022/03/11 01:21:16;;;;;;;14.40;11.82;;;4.90;79.40;;;;;;5032206;28;20029;-79
2022/03/11 01:23:42;;;;;;;15.35;10.63;;;4.70;80.40;;;;;;5049480;28;20028;-78
2022/03/11 01:26:08;;;;;;;13.48;10.43;;;4.80;81.00;;;;;;5049815;28;20025;-79
2022/03/11 01:28:33;;;;;;;17.55;11.88;;;4.80;80.90;;;;;;5034033;28;20025;-78
2022/03/11 01:30:59;;;;;;;14.93;11.18;;;4.80;81.90;;;;;;5034483;28;20531;-80
2022/03/11 01:33:25;;;;;;;18.05;12.48;;;4.90;81.80;;;;;;5047617;28;20195;-79
2022/03/11 01:35:51;;;;;;;15.48;12.50;;;5.10;81.40;;;;;;5048212;28;20135;-80
2022/03/11 01:38:16;;;;;;;14.18;11.50;;;5.10;81.40;;;;;;5068613;28;20068;-78
2022/03/11 01:40:42;;;;;;;14.82;10.88;;;5.00;82.00;;;;;;5069687;28;20113;-77
2022/03/11 01:43:18;;;;;;;16.40;13.02;;;4.90;82.80;;;;;;5055505;28;20029;-78
2022/03/11 01:45:44;;;;;;;16.80;12.02;;;4.90;83.00;;;;;;5071539;28;20097;-78
2022/03/11 01:48:11;;;;;;;17.27;12.63;;;4.80;83.70;;;;;;5031151;28;20045;-78
2022/03/11 01:50:41;;;;;;;14.93;11.48;;;4.90;83.50;;;;;;5037261;28;20523;-78
2022/03/11 01:53:08;;;;;;;15.98;12.13;;;4.90;83.50;;;;;;5035869;28;20030;-78
2022/03/11 01:55:35;;;;;;;19.02;12.77;;;4.80;84.10;;;;;;5052258;28;20113;-79
2022/03/11 01:58:01;;;;;;;20.65;12.98;;;4.60;85.00;;;;;;5052046;28;20508;-78
2022/03/11 02:00:27;;;;;;;24.20;15.88;;;4.50;85.90;;;;;;5052456;28;20486;-79
2022/03/11 02:02:52;;;;;;;18.70;14.10;;;4.40;86.50;;;;;;5035614;28;20036;-78
2022/03/11 02:05:18;;;;;;;17.98;12.90;;;4.50;86.60;;;;;;5033710;28;20481;-79
2022/03/11 02:07:44;;;;;;;14.93;13.00;;;4.60;86.40;;;;;;5037385;28;20100;-78
2022/03/11 02:10:10;;;;;;;17.83;13.95;;;4.60;86.40;;;;;;5034997;28;20095;-77
2022/03/11 02:12:35;;;;;;;19.40;12.98;;;4.70;86.60;;;;;;5042278;28;20047;-79
2022/03/11 02:15:08;;;;;;;16.60;12.75;;;4.60;86.80;;;;;;5032088;28;20036;-78
2022/03/11 02:17:34;;;;;;;20.48;13.75;;;4.60;86.90;;;;;;5040385;28;20025;-79
2022/03/11 02:20:00;;;;;;;20.63;11.93;;;4.70;87.10;;;;;;5031307;28;20397;-77
2022/03/11 02:22:26;;;;;;;21.98;13.15;;;4.60;87.60;;;;;;5036263;28;20032;-79
2022/03/11 02:24:53;;;;;;;17.70;14.35;;;4.70;87.60;;;;;;5031826;28;20041;-78
2022/03/11 02:27:19;;;;;;;20.38;13.10;;;4.60;88.40;;;;;;5035200;28;20025;-78
2022/03/11 02:29:46;;;;;;;23.65;14.40;;;4.60;88.30;;;;;;5029599;28;20029;-78
2022/03/11 02:32:13;;;;;;;20.58;14.40;;;4.60;88.70;;;;;;5032207;28;20030;-78
2022/03/11 02:34:38;;;;;;;21.13;14.25;;;4.50;89.50;;;;;;5028586;28;20053;-78
2022/03/11 02:37:05;;;;;;;18.38;14.02;;;4.50;89.50;;;;;;5025216;28;20575;-78
2022/03/11 02:39:31;;;;;;;21.50;14.57;;;4.60;89.50;;;;;;5037005;28;20033;-79
2022/03/11 02:41:58;;;;;;;21.42;15.38;;;4.60;89.20;;;;;;5056581;28;20040;-79
2022/03/11 02:44:24;;;;;;;22.20;14.25;;;4.60;89.40;;;;;;5042274;28;20039;-78
2022/03/11 02:46:50;;;;;;;19.65;13.38;;;4.60;89.80;;;;;;5038953;28;20026;-77
2022/03/11 02:49:16;;;;;;;20.98;14.07;;;4.40;90.10;;;;;;5049262;28;20022;-80
2022/03/11 02:51:41;;;;;;;18.73;14.80;;;4.40;90.30;;;;;;5032996;28;20025;-79
2022/03/11 02:54:07;;;;;;;21.17;14.73;;;4.20;90.80;;;;;;5045776;28;20025;-79
2022/03/11 02:56:32;;;;;;;18.30;14.10;;;4.00;91.30;;;;;;5030727;28;20510;-79
2022/03/11 02:58:58;;;;;;;21.20;15.05;;;3.70;92.00;;;;;;5038836;28;20048;-78
2022/03/11 03:01:24;;;;;;;27.58;15.25;;;3.60;92.60;;;;;;5038657;28;20056;-78
2022/03/11 03:03:49;;;;;;;22.27;14.85;;;3.60;93.10;;;;;;5039753;28;20090;-80
2022/03/11 03:06:15;;;;;;;23.77;16.30;;;3.70;93.10;;;;;;5034711;28;20068;-80
2022/03/11 03:08:41;;;;;;;22.42;15.65;;;3.80;93.10;;;;;;5031503;28;20417;-79
2022/03/11 03:11:06;;;;;;;23.45;15.40;;;3.60;93.50;;;;;;5038970;28;20073;-78
2022/03/11 03:13:32;;;;;;;18.45;14.05;;;3.50;94.00;;;;;;5038986;28;20033;-79
2022/03/11 03:15:58;;;;;;;20.13;16.60;;;3.40;94.50;;;;;;5053665;28;20036;-79
2022/03/11 03:18:23;;;;;;;22.05;14.55;;;3.40;94.60;;;;;;5037766;28;20536;-79
2022/03/11 03:20:49;;;;;;;21.08;14.85;;;3.30;95.20;;;;;;5038474;28;20101;-78
2022/03/11 03:23:14;;;;;;;22.58;15.40;;;3.20;95.60;;;;;;5038567;28;20029;-79
2022/03/11 03:25:41;;;;;;;20.48;15.57;;;3.10;96.30;;;;;;5055175;28;20025;-79
2022/03/11 03:28:07;;;;;;;23.45;17.83;;;3.10;96.50;;;;;;5037768;28;20025;-78
2022/03/11 03:30:34;;;;;;;20.98;15.32;;;3.10;96.90;;;;;;5037396;28;20026;-79
2022/03/11 03:32:59;;;;;;;20.92;15.00;;;3.00;97.20;;;;;;5042610;28;20036;-78
2022/03/11 03:35:25;;;;;;;22.50;16.60;;;3.00;97.40;;;;;;5051983;28;20029;-78
2022/03/11 03:37:50;;;;;;;20.45;16.27;;;3.00;98.00;;;;;;5033387;28;20036;-79
2022/03/11 03:40:16;;;;;;;26.83;17.75;;;2.90;98.10;;;;;;5036479;28;20029;-79
2022/03/11 03:42:46;;;;;;;27.73;16.88;;;2.90;98.30;;;;;;5052299;28;20028;-78
2022/03/11 03:45:12;;;;;;;23.13;17.10;;;2.80;98.60;;;;;;5039639;28;20088;-79
2022/03/11 03:47:37;;;;;;;32.00;18.98;;;2.80;98.90;;;;;;5050862;28;20037;-78
2022/03/11 03:50:03;;;;;;;26.05;17.63;;;2.80;99.20;;;;;;5037367;28;20086;-79
2022/03/11 03:52:29;;;;;;;25.30;16.90;;;2.70;99.40;;;;;;5036714;28;20030;-80
2022/03/11 03:54:55;;;;;;;25.52;17.42;;;2.60;99.60;;;;;;5053806;28;20120;-78
2022/03/11 03:57:21;;;;;;;23.73;17.25;;;2.70;99.90;;;;;;5037526;28;20104;-78
2022/03/11 03:59:47;;;;;;;27.83;17.95;;;2.70;99.80;;;;;;5034069;28;20026;-80
2022/03/11 04:02:12;;;;;;;24.35;18.05;;;2.70;99.90;;;;;;5051904;28;20034;-77
2022/03/11 04:04:38;;;;;;;27.95;18.27;;;2.70;99.90;;;;;;5036532;28;20026;-78
2022/03/11 04:07:04;;;;;;;24.23;17.80;;;2.70;99.60;;;;;;5042580;28;20053;-77
2022/03/11 04:09:29;;;;;;;27.05;18.70;;;2.70;99.80;;;;;;5038371;28;20029;-79
2022/03/11 04:11:55;;;;;;;22.48;17.63;;;2.70;99.90;;;;;;5053167;28;20040;-79
2022/03/11 04:14:20;;;;;;;26.38;17.75;;;2.60;99.90;;;;;;5033893;28;20413;-79
2022/03/11 04:16:46;;;;;;;23.73;16.65;;;2.50;99.90;;;;;;5036399;28;20025;-78
2022/03/11 04:19:11;;;;;;;24.25;17.33;;;2.50;99.90;;;;;;5050685;28;20032;-79
2022/03/11 04:21:37;;;;;;;26.75;17.15;;;2.40;99.90;;;;;;5034202;28;20030;-77
2022/03/11 04:24:04;;;;;;;24.27;17.25;;;2.50;99.90;;;;;;5035704;28;20029;-78
2022/03/11 04:26:30;;;;;;;25.10;16.70;;;2.50;99.90;;;;;;5033405;28;20033;-79
2022/03/11 04:28:55;;;;;;;24.13;17.30;;;2.40;99.90;;;;;;5033076;28;20049;-79
2022/03/11 04:31:22;;;;;;;23.98;16.70;;;2.40;99.90;;;;;;5020719;28;20030;-79
2022/03/11 04:33:47;;;;;;;24.63;16.35;;;2.40;99.90;;;;;;5023732;28;20060;-78
2022/03/11 04:36:13;;;;;;;21.33;15.52;;;2.40;99.90;;;;;;5046152;28;20034;-79
2022/03/11 04:38:39;;;;;;;23.48;15.63;;;2.30;99.90;;;;;;5050809;28;20022;-79
2022/03/11 04:41:05;;;;;;;23.50;17.52;;;2.30;99.90;;;;;;5035515;28;20394;-78
2022/03/11 04:43:31;;;;;;;28.90;17.00;;;2.30;99.90;;;;;;5051913;28;20022;-77
2022/03/11 04:45:57;;;;;;;25.88;17.10;;;2.20;99.90;;;;;;5035605;28;20021;-78
2022/03/11 04:48:23;;;;;;;25.80;17.02;;;2.20;99.90;;;;;;5028991;28;20044;-79
2022/03/11 04:50:48;;;;;;;29.73;19.38;;;2.20;99.90;;;;;;5035381;28;20049;-79
2022/03/11 04:53:14;;;;;;;27.15;17.48;;;2.20;99.90;;;;;;5035984;28;20033;-78
2022/03/11 04:55:39;;;;;;;24.67;17.80;;;2.20;99.90;;;;;;5036208;28;20541;-78
2022/03/11 04:58:05;;;;;;;24.90;18.08;;;2.20;99.90;;;;;;5036401;28;20033;-78
2022/03/11 05:00:30;;;;;;;30.50;19.38;;;2.20;99.60;;;;;;5034706;28;20029;-77
2022/03/11 05:02:58;;;;;;;22.52;16.55;;;2.20;99.70;;;;;;5025943;28;20049;-79
2022/03/11 05:05:25;;;;;;;26.20;17.77;;;2.20;99.10;;;;;;5032155;28;20029;-78
2022/03/11 05:07:51;;;;;;;21.67;15.20;;;2.20;98.80;;;;;;5030440;28;20022;-78
2022/03/11 05:10:16;;;;;;;21.55;15.00;;;2.20;98.40;;;;;;5035283;28;20037;-79
2022/03/11 05:12:42;;;;;;;20.67;14.10;;;2.20;98.00;;;;;;5033984;28;20025;-79
2022/03/11 05:15:10;;;;;;;22.52;14.82;;;2.20;97.70;;;;;;5033884;28;20033;-79
2022/03/11 05:17:36;;;;;;;21.08;14.25;;;2.20;97.40;;;;;;5031785;28;20486;-79
2022/03/11 05:20:06;;;;;;;19.60;13.57;;;2.30;96.70;;;;;;5033181;28;20033;-78
2022/03/11 05:22:32;;;;;;;21.48;16.00;;;2.20;96.30;;;;;;5042264;28;20565;-79
2022/03/11 05:24:58;;;;;;;20.40;14.73;;;2.30;96.00;;;;;;5050102;28;20044;-79
2022/03/11 05:27:24;;;;;;;15.93;12.07;;;2.20;96.10;;;;;;5039127;28;20026;-79
2022/03/11 05:29:49;;;;;;;16.08;12.52;;;2.10;96.20;;;;;;5037279;28;20048;-79
2022/03/11 05:32:16;;;;;;;17.58;12.48;;;2.00;96.10;;;;;;5036878;28;20063;-78
2022/03/11 05:34:42;;;;;;;14.75;11.80;;;2.00;96.00;;;;;;5036126;28;20081;-77
2022/03/11 05:37:09;;;;;;;18.10;12.52;;;2.00;95.80;;;;;;5051630;28;20033;-79
2022/03/11 05:39:36;;;;;;;17.30;12.55;;;1.90;95.90;;;;;;5052199;28;20032;-79
2022/03/11 05:42:02;;;;;;;16.15;12.00;;;1.90;95.60;;;;;;5032170;28;20026;-79
2022/03/11 05:44:27;;;;;;;16.25;12.73;;;1.90;95.30;;;;;;5030578;28;20131;-80
2022/03/11 05:46:53;;;;;;;20.27;13.10;;;2.00;95.10;;;;;;5036466;28;20033;-79
2022/03/11 05:49:20;;;;;;;15.13;10.63;;;2.00;95.00;;;;;;5032288;28;20037;-79
2022/03/11 05:51:45;;;;;;;22.23;10.93;;;2.00;94.70;;;;;;5050039;28;20037;-79
2022/03/11 05:54:11;;;;;;;15.18;10.15;;;2.00;94.50;;;;;;5035894;28;20029;-79
2022/03/11 05:56:39;;;;;;;14.05;10.73;;;2.10;94.40;;;;;;5037621;28;20036;-79
2022/03/11 05:59:05;;;;;;;17.13;10.80;;;2.00;94.20;;;;;;5036329;28;20049;-79
2022/03/11 06:01:35;;;;;;;15.55;10.93;;;2.00;93.90;;;;;;5031791;28;20018;-79
2022/03/11 06:04:02;;;;;;;14.63;10.40;;;2.00;94.90;;;;;;5033911;28;20041;-79
2022/03/11 06:06:30;;;;;;;15.95;10.40;;;2.10;93.90;;;;;;5033968;28;20029;-78
2022/03/11 06:08:56;;;;;;;15.90;10.88;;;2.10;93.90;;;;;;5028902;28;20030;-80
2022/03/11 06:11:21;;;;;;;11.88;8.82;;;2.20;92.90;;;;;;5027943;28;20026;-77
2022/03/11 06:13:47;;;;;;;16.45;9.70;;;2.30;92.70;;;;;;5029592;28;20445;-78
2022/03/11 06:16:13;;;;;;;14.23;10.05;;;2.30;92.40;;;;;;5045719;28;20053;-78
2022/03/11 06:18:39;;;;;;;16.75;9.50;;;2.30;92.40;;;;;;5059551;28;20029;-78
2022/03/11 06:21:05;;;;;;;11.68;9.05;;;2.40;92.10;;;;;;5046515;28;20033;-77
2022/03/11 06:23:31;;;;;;;16.55;9.80;;;2.40;91.90;;;;;;5050086;28;20036;-77
2022/03/11 06:25:57;;;;;;;14.82;9.30;;;2.40;91.70;;;;;;5037830;28;20036;-77
2022/03/11 06:28:23;;;;;;;17.02;10.13;;;2.50;90.90;;;;;;5047195;28;20417;-79
2022/03/11 06:30:49;;;;;;;14.15;8.90;;;2.50;90.90;;;;;;5040180;28;20112;-78
2022/03/11 06:33:15;;;;;;;11.25;8.43;;;2.60;90.40;;;;;;5039053;28;20105;-78
2022/03/11 06:35:41;;;;;;;12.65;9.35;;;2.80;90.20;;;;;;5042203;28;20026;-79
2022/03/11 06:38:06;;;;;;;17.70;8.85;;;2.90;89.40;;;;;;5038206;28;20029;-79
2022/03/11 06:40:32;;;;;;;13.23;7.88;;;2.80;89.60;;;;;;5040242;28;20045;-79
2022/03/11 06:42:57;;;;;;;11.88;8.90;;;2.90;89.30;;;;;;5042037;28;20512;-79
2022/03/11 06:45:23;;;;;;;18.38;9.75;;;2.90;88.70;;;;;;5040678;28;20026;-79
2022/03/11 06:47:49;;;;;;;10.60;8.05;;;2.90;88.50;;;;;;5039950;28;20025;-79
2022/03/11 06:50:16;;;;;;;14.25;8.32;;;3.00;87.00;;;;;;5038463;28;20029;-79
2022/03/11 06:52:42;;;;;;;12.65;7.68;;;3.20;85.30;;;;;;5039875;28;20398;-79
2022/03/11 06:55:09;;;;;;;11.63;8.38;;;3.30;84.70;;;;;;5035864;28;20029;-78
2022/03/11 06:57:34;;;;;;;11.15;7.65;;;3.30;84.90;;;;;;5046386;28;20104;-78
2022/03/11 07:00:00;;;;;;;12.93;8.20;;;3.20;85.00;;;;;;5039403;28;20100;-79
2022/03/11 07:02:26;;;;;;;11.93;7.65;;;3.20;84.30;;;;;;5039573;28;20041;-78
2022/03/11 07:04:51;;;;;;;12.50;8.10;;;3.20;84.60;;;;;;5036817;28;20021;-78
2022/03/11 07:07:17;;;;;;;14.70;7.20;;;3.30;83.70;;;;;;5039074;28;20096;-78
2022/03/11 07:09:42;;;;;;;12.05;8.23;;;3.50;82.70;;;;;;5037266;28;20139;-78
2022/03/11 07:12:08;;;;;;;10.80;6.70;;;3.70;81.70;;;;;;5033956;28;20032;-78
2022/03/11 07:14:35;;;;;;;13.85;6.97;;;3.80;81.30;;;;;;5038805;28;20547;-78
2022/03/11 07:17:10;;;;;;;12.65;6.78;;;3.70;80.50;;;;;;5035941;28;20034;-79
2022/03/11 07:19:36;;;;;;;10.98;7.75;;;3.80;80.10;;;;;;5048401;28;20116;-79
2022/03/11 07:22:05;;;;;;;8.68;6.97;;;3.90;79.90;;;;;;5036391;28;20567;-78
2022/03/11 07:24:30;;;;;;;11.73;7.40;;;3.90;80.40;;;;;;5034190;28;20026;-78
2022/03/11 07:26:57;;;;;;;8.45;6.75;;;4.00;79.40;;;;;;5053819;28;20485;-78
2022/03/11 07:29:22;;;;;;;11.30;7.22;;;4.10;78.30;;;;;;5052448;28;20090;-80
2022/03/11 07:31:48;;;;;;;12.23;7.97;;;4.10;78.30;;;;;;5038686;28;20033;-78
2022/03/11 07:34:14;;;;;;;10.52;6.93;;;4.30;78.00;;;;;;5030095;28;20029;-78
2022/03/11 07:36:41;;;;;;;9.23;6.95;;;4.10;77.40;;;;;;5033441;28;20030;-79
2022/03/11 07:39:07;;;;;;;14.57;7.45;;;4.30;77.60;;;;;;5034906;28;20056;-78
2022/03/11 07:41:34;;;;;;;13.50;7.68;;;4.40;77.70;;;;;;5037521;28;20029;-78
2022/03/11 07:44:00;;;;;;;8.90;7.15;;;4.60;76.70;;;;;;5055217;28;20025;-79
2022/03/11 07:46:27;;;;;;;11.50;7.25;;;4.60;76.50;;;;;;5037290;28;20029;-79
2022/03/11 07:48:54;;;;;;;10.82;7.75;;;4.70;76.10;;;;;;5054515;28;20496;-78
2022/03/11 07:51:20;;;;;;;12.48;8.38;;;4.70;75.90;;;;;;5038507;28;20030;-78
2022/03/11 07:53:46;;;;;;;8.90;7.13;;;4.80;75.90;;;;;;5055024;28;20027;-79
2022/03/11 07:56:13;;;;;;;10.45;7.10;;;4.70;75.40;;;;;;5036657;28;20368;-78
2022/03/11 07:58:42;;;;;;;10.88;7.47;;;4.80;75.20;;;;;;5035444;28;20072;-76
2022/03/11 08:01:12;;;;;;;9.18;7.20;;;4.90;74.70;;;;;;5024181;28;20080;-79
2022/03/11 08:03:39;;;;;;;10.20;6.90;;;4.90;74.70;;;;;;5023500;28;20486;-80
2022/03/11 08:06:06;;;;;;;11.88;8.48;;;4.90;74.80;;;;;;5044731;28;20406;-78
2022/03/11 08:08:32;;;;;;;16.13;7.57;;;5.00;74.80;;;;;;5031604;28;20032;-78
2022/03/11 08:10:58;;;;;;;12.73;6.70;;;5.10;75.00;;;;;;5045512;28;20029;-77
2022/03/11 08:13:24;;;;;;;15.02;7.22;;;5.10;75.00;;;;;;5035373;28;20037;-78
2022/03/11 08:15:49;;;;;;;11.48;7.53;;;5.40;74.30;;;;;;5035139;28;20026;-79
2022/03/11 08:18:15;;;;;;;10.82;7.95;;;5.60;74.60;;;;;;5043857;28;20057;-78
2022/03/11 08:20:41;;;;;;;9.95;8.30;;;5.40;74.50;;;;;;5035195;28;20033;-78
2022/03/11 08:23:08;;;;;;;10.75;7.93;;;5.50;74.00;;;;;;5025203;28;20025;-77
2022/03/11 08:25:36;;;;;;;13.02;7.78;;;5.40;74.50;;;;;;5034689;28;20041;-78
2022/03/11 08:28:04;;;;;;;17.17;8.60;;;5.50;74.00;;;;;;5036059;28;20053;-78
2022/03/11 08:30:31;;;;;;;9.57;7.68;;;5.90;73.30;;;;;;5027362;28;20401;-79
2022/03/11 08:32:58;;;;;;;11.05;7.45;;;6.00;72.50;;;;;;5035475;28;20772;-77
2022/03/11 08:35:24;;;;;;;9.15;7.57;;;5.90;72.40;;;;;;5029577;28;20120;-78
2022/03/11 08:37:50;;;;;;;17.17;9.20;;;5.90;72.50;;;;;;5040155;28;20104;-78
2022/03/11 08:40:22;;;;;;;12.20;7.28;;;6.00;72.80;;;;;;5026944;28;20044;-79
2022/03/11 08:42:48;;;;;;;11.05;7.88;;;6.00;73.40;;;;;;5041815;28;20483;-77
2022/03/11 08:45:13;;;;;;;9.30;7.25;;;6.20;71.90;;;;;;5023471;28;20037;-77
2022/03/11 08:47:39;;;;;;;13.32;8.45;;;6.30;70.70;;;;;;5034049;28;20017;-77
2022/03/11 08:50:05;;;;;;;11.07;8.07;;;6.20;71.00;;;;;;5035267;28;20029;-79
2022/03/11 08:52:31;;;;;;;11.05;7.90;;;6.20;71.30;;;;;;5045175;28;20056;-78
2022/03/11 08:54:57;;;;;;;10.35;8.20;;;6.20;71.20;;;;;;5044930;28;20034;-79
2022/03/11 08:57:23;;;;;;;11.68;7.97;;;6.40;71.30;;;;;;5035751;28;20045;-78
2022/03/11 08:59:49;;;;;;;14.65;8.82;;;6.40;70.90;;;;;;5034242;28;20508;-78
2022/03/11 09:02:15;;;;;;;13.75;7.43;;;6.60;70.40;;;;;;5035272;28;20021;-78
2022/03/11 09:04:41;;;;;;;17.02;8.43;;;6.60;70.30;;;;;;5036970;28;20021;-79
2022/03/11 09:07:07;;;;;;;12.07;8.38;;;6.70;70.50;;;;;;5035760;28;20115;-79
2022/03/11 09:09:34;;;;;;;12.40;8.05;;;6.60;70.40;;;;;;5048896;28;20025;-79
2022/03/11 09:12:00;;;;;;;11.45;8.02;;;6.60;70.80;;;;;;5046876;28;20030;-79
2022/03/11 09:14:25;;;;;;;13.38;7.93;;;6.80;70.30;;;;;;5034337;28;20171;-78
2022/03/11 09:16:51;;;;;;;9.77;7.15;;;6.80;70.40;;;;;;5050296;28;20022;-78
2022/03/11 09:19:17;;;;;;;15.48;7.80;;;6.80;70.20;;;;;;5033868;28;20038;-78
2022/03/11 09:21:43;;;;;;;13.55;8.00;;;6.80;70.30;;;;;;5046865;28;20084;-79
2022/03/11 09:24:09;;;;;;;12.63;8.65;;;7.00;70.10;;;;;;5047021;28;20052;-78
2022/03/11 09:26:34;;;;;;;13.23;8.68;;;6.90;69.60;;;;;;5070854;28;20025;-77
2022/03/11 09:29:00;;;;;;;16.48;9.30;;;7.00;69.80;;;;;;5072418;28;20031;-76
2022/03/11 09:31:26;;;;;;;12.45;8.43;;;7.10;69.70;;;;;;5054205;28;20040;-77
2022/03/11 09:33:51;;;;;;;12.88;8.32;;;7.20;69.60;;;;;;5056997;28;20021;-76
2022/03/11 09:36:18;;;;;;;12.63;8.38;;;7.30;69.20;;;;;;5055052;28;20045;-78
2022/03/11 09:38:43;;;;;;;13.63;8.57;;;7.60;69.10;;;;;;5056180;28;20093;-78
2022/03/11 09:41:09;;;;;;;14.45;8.75;;;7.40;69.10;;;;;;5055521;28;20044;-77
2022/03/11 09:43:37;;;;;;;12.55;8.75;;;7.70;69.00;;;;;;5072625;28;20029;-78
2022/03/11 09:46:03;;;;;;;13.90;7.80;;;7.70;68.70;;;;;;5043040;28;20025;-78
2022/03/11 09:48:30;;;;;;;14.25;8.80;;;7.60;68.90;;;;;;5035021;28;20485;-78
2022/03/11 09:50:58;;;;;;;14.27;8.63;;;7.70;69.10;;;;;;5050724;28;20029;-78
2022/03/11 09:53:24;;;;;;;14.48;8.23;;;7.90;69.20;;;;;;5075964;28;20029;-79
2022/03/11 09:55:49;;;;;;;10.75;8.68;;;8.10;69.00;;;;;;5077358;28;20097;-77
2022/03/11 09:58:15;;;;;;;10.13;8.18;;;8.40;67.60;;;;;;5078205;28;20029;-78
2022/03/11 10:00:40;;;;;;;12.82;8.73;;;8.40;68.00;;;;;;5055727;28;20030;-77
2022/03/11 10:03:06;;;;;;;13.40;8.65;;;8.60;66.90;;;;;;5060287;28;20133;-78
2022/03/11 10:05:46;;;;;;;9.95;8.60;;;8.70;65.80;;;;;;5077643;28;20025;-79
2022/03/11 10:08:12;;;;;;;11.77;8.57;;;8.70;66.20;;;;;;5069054;28;20040;-77
2022/03/11 10:10:38;;;;;;;14.00;8.40;;;8.80;66.10;;;;;;5049906;28;20115;-79
2022/03/11 10:13:07;;;;;;;11.40;8.55;;;8.90;66.20;;;;;;5042370;28;20029;-79
2022/03/11 10:15:33;;;;;;;14.05;8.60;;;9.10;66.20;;;;;;5053372;28;20033;-79
2022/03/11 10:18:02;;;;;;;10.07;7.95;;;9.20;65.30;;;;;;5041810;28;20108;-79
2022/03/11 10:20:30;;;;;;;12.82;8.73;;;9.10;64.90;;;;;;5045235;28;20013;-79
2022/03/11 10:22:57;;;;;;;15.90;10.48;;;9.00;65.30;;;;;;5057502;28;20040;-80
2022/03/11 10:25:25;;;;;;;12.88;9.35;;;9.20;65.20;;;;;;5038451;28;20648;-80
2022/03/11 10:27:58;;;;;;;15.05;8.82;;;9.50;65.20;;;;;;5031635;28;20022;-79
2022/03/11 10:30:25;;;;;;;10.95;8.60;;;9.70;64.20;;;;;;5057288;28;20060;-79
2022/03/11 10:32:52;;;;;;;12.15;8.65;;;9.50;64.20;;;;;;5040328;28;20025;-79
2022/03/11 10:35:21;;;;;;;13.85;8.70;;;9.40;65.00;;;;;;5038944;28;20033;-80
2022/03/11 10:38:21;;;;;;;14.02;8.05;;;9.60;64.30;;;;;;5040443;28;20029;-79
2022/03/11 10:40:58;;;;;;;14.35;8.45;;;9.90;64.00;;;;;;4986874;28;20072;-81
2022/03/11 10:43:25;;;;;;;14.02;8.82;;;9.90;64.00;;;;;;5056016;28;20567;-79
2022/03/11 10:46:01;;;;;;;14.93;8.70;;;10.10;63.60;;;;;;5039444;28;20600;-80
2022/03/11 10:48:47;;;;;;;11.75;8.95;;;10.40;63.50;;;;;;5047095;28;20026;-81
2022/03/11 10:51:20;;;;;;;15.15;8.82;;;10.50;62.90;;;;;;5037578;28;20033;-80
2022/03/11 10:53:51;;;;;;;14.85;8.93;;;10.60;62.80;;;;;;5032421;28;20022;-79
2022/03/11 10:56:29;;;;;;;11.40;8.97;;;10.60;62.50;;;;;;5054881;28;20025;-78
2022/03/11 10:58:55;;;;;;;11.57;8.70;;;10.70;62.40;;;;;;5035907;28;20125;-80
2022/03/11 11:01:57;;;;;;;10.38;8.07;;;10.80;61.90;;;;;;5038258;28;20079;-78
2022/03/11 11:04:23;;;;;;;13.60;9.18;;;10.70;62.00;;;;;;5017072;28;20026;-78
2022/03/11 11:06:49;;;;;;;20.45;8.90;;;10.30;62.70;;;;;;5051856;28;20025;-78
2022/03/11 11:09:17;;;;;;;18.20;9.40;;;10.60;62.10;;;;;;5036273;28;20034;-77
2022/03/11 11:11:43;;;;;;;12.98;9.48;;;10.80;61.60;;;;;;5040293;28;20026;-76
2022/03/11 11:14:10;;;;;;;17.60;9.70;;;10.70;61.70;;;;;;5023692;28;20347;-76
2022/03/11 11:16:41;;;;;;;16.27;9.27;;;10.90;61.80;;;;;;5050809;28;20024;-76
2022/03/11 11:19:13;;;;;;;12.95;8.60;;;11.10;61.70;;;;;;5047414;28;20075;-77
2022/03/11 11:21:42;;;;;;;15.40;10.52;;;11.30;60.90;;;;;;5033969;28;20021;-76
2022/03/11 11:24:22;;;;;;;11.55;9.82;;;11.20;61.20;;;;;;5032352;28;20084;-77
2022/03/11 11:26:53;;;;;;;11.98;9.00;;;11.30;60.70;;;;;;5035557;28;20040;-77
2022/03/11 11:29:27;;;;;;;15.40;8.77;;;11.30;60.70;;;;;;5035570;28;20034;-77
2022/03/11 11:31:53;;;;;;;10.70;9.43;;;11.20;60.80;;;;;;5034515;28;20018;-77
2022/03/11 11:34:31;;;;;;;10.32;8.40;;;11.40;61.00;;;;;;5041423;28;20030;-76
2022/03/11 11:36:58;;;;;;;12.55;8.85;;;11.40;60.70;;;;;;5049896;28;20402;-79
2022/03/11 11:39:26;;;;;;;12.88;10.13;;;11.60;60.70;;;;;;5034212;28;20034;-77
2022/03/11 11:41:57;;;;;;;11.02;9.25;;;11.50;60.70;;;;;;5031339;28;20017;-79
2022/03/11 11:44:37;;;;;;;12.65;9.00;;;11.10;61.20;;;;;;5049367;28;20021;-78
2022/03/11 11:47:20;;;;;;;11.18;9.18;;;11.60;61.00;;;;;;5025860;28;20033;-76
2022/03/11 11:49:56;;;;;;;10.02;8.68;;;11.90;60.30;;;;;;5027360;28;20478;-78
2022/03/11 11:52:29;;;;;;;11.10;9.02;;;12.10;59.80;;;;;;5030291;28;20030;-77
2022/03/11 11:55:17;;;;;;;12.35;9.30;;;12.10;59.80;;;;;;5034547;28;20559;-79
2022/03/11 11:57:46;;;;;;;9.18;8.18;;;11.80;59.70;;;;;;5034466;28;20025;-77
2022/03/11 12:00:26;;;;;;;14.18;9.30;;;11.60;60.60;;;;;;5048746;28;20413;-77
2022/03/11 12:02:53;;;;;;;10.68;9.55;;;12.00;60.10;;;;;;5035622;28;20051;-77
2022/03/11 12:05:42;;;;;;;11.32;9.00;;;12.20;59.70;;;;;;5017644;28;20029;-79
2022/03/11 12:08:10;;;;;;;14.13;9.63;;;12.10;59.60;;;;;;5030971;28;20112;-78
2022/03/11 12:10:50;;;;;;;13.23;9.18;;;12.30;59.50;;;;;;5031392;28;20030;-77
2022/03/11 12:13:37;;;;;;;11.80;8.68;;;12.30;58.90;;;;;;5036131;28;20101;-77
2022/03/11 12:16:04;;;;;;;11.95;8.88;;;12.30;59.40;;;;;;5037189;28;20386;-77
2022/03/11 12:18:41;;;;;;;14.23;9.15;;;12.60;59.20;;;;;;5036760;28;20036;-76
2022/03/11 12:21:08;;;;;;;9.05;7.78;;;12.60;59.20;;;;;;5031683;28;20033;-77
2022/03/11 12:23:36;;;;;;;12.40;8.65;;;12.80;58.70;;;;;;5034092;28;20020;-76
2022/03/11 12:26:10;;;;;;;12.35;8.50;;;12.90;58.70;;;;;;5031650;28;20025;-76
2022/03/11 12:28:41;;;;;;;16.30;8.88;;;12.90;58.60;;;;;;5036482;28;20013;-77
2022/03/11 12:31:19;;;;;;;9.75;8.07;;;12.90;58.60;;;;;;5034191;28;20478;-77
2022/03/11 12:33:47;;;;;;;14.00;8.90;;;13.00;58.80;;;;;;5030963;28;20446;-78
2022/03/11 12:36:17;;;;;;;11.27;8.07;;;12.90;58.50;;;;;;5031470;28;20089;-76
2022/03/11 12:38:45;;;;;;;12.75;9.13;;;12.90;58.40;;;;;;5035681;28;20017;-76
2022/03/11 12:41:12;;;;;;;12.27;9.50;;;12.90;58.60;;;;;;5034236;28;20025;-75